Date,TemperatureHighF,TemperatureAvgF,TemperatureLowF,DewpointHighF,DewpointAvgF,DewpointLowF,HumidityHigh,HumidityAvg,HumidityLow,PressureMaxIn,PressureMinIn,WindSpeedMaxMPH,WindSpeedAvgMPH,GustSpeedMaxMPH,PrecipitationSumIn
2013-11-4,58.2,52.0,41.3,40.9,38.9,36.5,84,62,50,30.41,30.31,18,2,18,0.00
2013-11-9,51.9,48.5,46.6,35.8,34.0,28.3,64,57,43,30.34,30.23,20,4,20,0.00
2013-11-10,60.1,50.0,43.6,42.5,35.3,24.0,77,58,37,30.32,30.24,24,9,24,0.00
2013-11-11,62.1,50.4,39.3,31.4,24.8,13.0,58,39,18,30.29,30.16,15,5,15,0.00
2013-11-12,55.1,36.1,23.9,40.0,24.2,14.5,95,65,28,30.52,30.12,41,17,41,0.00
2013-11-13,42.1,29.4,21.4,19.5,16.9,14.4,77,61,37,30.67,30.49,19,4,19,0.00
2013-11-14,52.4,40.7,30.9,22.3,16.8,10.8,59,39,28,30.49,30.27,14,4,14,0.00
2013-11-15,48.1,43.2,39.8,44.6,34.7,18.2,98,75,39,30.27,30.12,15,4,15,0.10
2013-11-16,54.1,50.8,45.1,53.4,50.2,44.3,98,98,97,30.20,30.05,23,4,23,0.00
2013-11-17,64.0,58.2,54.1,63.7,57.9,53.5,99,99,95,30.05,29.81,58,8,58,0.76
2013-11-18,58.1,50.1,39.6,56.7,38.8,29.6,95,66,43,30.12,29.87,35,14,35,0.00
2013-11-19,46.7,39.3,33.7,29.9,27.4,23.2,77,63,41,30.22,30.11,35,8,35,0.00
2013-11-20,52.6,42.7,35.0,36.6,31.3,27.0,76,64,47,30.31,30.17,19,3,19,0.00
2013-11-21,53.9,48.9,44.8,50.3,44.3,36.1,97,84,71,30.34,30.25,15,3,15,0.00
2013-11-22,57.4,52.2,45.4,56.7,51.6,44.9,98,98,97,30.30,30.17,25,7,25,0.06
2013-11-23,45.4,36.5,23.8,44.9,33.8,19.1,98,90,65,30.38,30.17,43,17,43,0.00
2013-11-24,30.7,23.1,16.0,19.3,10.7,4.6,86,61,35,30.56,30.34,34,9,34,0.00
2013-11-25,34.4,29.3,23.2,30.7,17.9,10.0,96,64,42,30.49,30.19,16,2,16,0.04
2013-11-26,38.8,34.2,28.7,38.3,33.5,28.1,98,97,96,30.20,29.79,39,10,39,0.62
2013-11-27,28.6,23.0,16.8,27.9,20.6,13.1,98,90,81,30.34,29.80,41,16,41,0.00
2013-11-28,39.7,28.7,16.5,30.3,19.3,13.0,88,70,41,30.53,30.34,14,4,14,0.00
2013-11-29,47.2,37.3,32.0,27.5,21.3,14.9,67,53,44,30.58,30.47,13,5,13,0.00
2013-11-30,49.7,40.0,34.5,29.5,27.0,25.7,72,60,42,30.52,30.28,17,4,17,0.00